San Juan, PR

11:24 AM AST en Julio 31, 2015 (GMT -0400)
Condado, Calle Earle, At The Ocean | | Change Station
CLOSE
Current Station
Estación meteorológica personal
Location: San Juan, SAN JUAN
Altura: 10 ft
Estaciones meteorológicas cercanas

Alt 10 ft 18.46 °N, 66.07 °W | Updated 11 seconds ago

Mostly Cloudy
Muy nublado
84.0 ° F
Sensación térmica 95 ° F
N
4.0
Viento Variable Viento desde SO
Gusts 10.0 mph

Hoy
Alta -- | Baja -- ° F
--% Posibilidad de precipitaciones
Ayer
Alta -- | Baja -- ° F
Precip. -- pul
6:01 AM 6:59 PM
Luna llena, 100% visible
Presión 30.07 pul
Visibilidad 10.0 Millas
Nubes Baja 2600 ft
Nubes dispersas 4300 ft
Muy nublado 5500 ft
Índice de calor 95 ° F
Punto de rocío 78 ° F
Humedad 83%
Precipitaciones 0.02 pul
Espesor de la nieve No disponible.
UV 6 de una escala de 12
Polen No disponible.
Calidad del aire No disponible.
Flu Activity No disponible.
METAR TJSJ 311456Z 07014G22KT 10SM FEW026 SCT043 BKN055 31/25 A3007 RMK AO2 SLP181 VCSH NE 60000 T03060250 50004

More Conditions Fewer Conditions

Presión 30.07 pul
Visibilidad 10.0 Millas
Nubes Baja 2600 ft
Nubes dispersas 4300 ft
Muy nublado 5500 ft
Índice de calor 95 ° F
Punto de rocío 78 ° F
Humedad 83%
Precipitaciones 0.02 pul
Espesor de la nieve No disponible.
UV 6 de una escala de 12
Polen No disponible.
Calidad del aire No disponible.
Flu Activity No disponible.
METAR TJSJ 311456Z 07014G22KT 10SM FEW026 SCT043 BKN055 31/25 A3007 RMK AO2 SLP181 VCSH NE 60000 T03060250 50004

More Conditions Fewer Conditions

10-Day Weather Forecast

×

Almanac

Astronomía

Jul. 31, 2015 Salida Puesta
Hora real
Crepúsculo civil
Crepúsculo náutico
Crepúsculo astronómico
Luna
Horas de luz
Horas de luz
Tomorrow will be .
, % of the Moon is Illuminated

Extremos de hoy

Máximos del estado Bajos del estado

Community

WunderPhotos

Upload Photos

1,842,670 ¡fotos cargadas!

WunderBlogs® & News

Nearby

Calidad del aire

  Calidad del aire Índice AQ Contaminante
Not available.

Grosos de nieve

Estación Profundido Altura

Actividad de terremotos

Ciudad Distance Mag. Tiempo y dato
Magnitud mínima muestra es 2,5.

Temperaturas de aguas costeras

Lugar Temperatura

Stations

Estaciones meteorológicas cercanas

Ubicación de la estación Temp. Vientos helados Punto de rocío Humedad Viento Precip. Alt Actualizado Tipo